Hauptseite
METAR-TAF:

METAR-TAF

Flughäfen :

Flughafen Stettin-Goleniów

Stettin, Polen

Breite: 53-35N, Länge: 014-54E, Höhe: 1 m

Beobachtung

Neuester Wetterbericht von vor 37 Minuten, um 06:30 UTC
Wind 5 kt aus Süd
Temperatur 10°C
Luftfeuchtigkeit 93%
Luftdruck 1022 hPa
Sichtweite 10 km oder mehr
keine Wolken unter 1500 m und keine Kumulonimbus oder Gewitterwolken

METAR: EPSC 280630Z 17005KT CAVOK 10/09 Q1022

Zeit: 09:07 (07:07 UTC)

Prognose

Neuester Wetterbericht von vor 1 Stunde und 37 Minuten, um 05:30 UTC
Gültige Prognose vom 28 um 06 UTC bis 29 um 06 UTC
Wind 8 kt aus Süd
Sichtweite 10 km oder mehr
Aufgelockert bewölkt in der Höhe von 2000 ft
Durchbrochene Bewölkung in der Höhe von 4000 ft

TAF: EPSC 280530Z 2806/2906 19008KT 9999 SCT020 BKN040

Wetterbeobachtungen und Prognosen von mehr als 4000 Flughäfen (METAR und TAF Bericht).

Die verfügbaren Stationen werden durch gelbe und rote Markierungen auf der Karte dargestellt.

Führen Sie die Maus auf sie, um den Namen der Station zu sehen.

Darauf klicken, um die Beobachtung von Wetterbeobachtungen und Prognosen zu sehen.

Um die Karte zu ändern : klicken Sie auf den grünen Tasten mit einem schwarzen Kreuz Zum Vergrößern, auf den grünen Button mit einem Gedankenstrich zu verkleinern, oder auf die grünen Pfeile für benachbarte Karten.


METAR-TAF: